Time;durP1;ratioP1;P1;durP2;ratioP2;P2;SDS_P1;SDS_P2;PMS_P1;PMS_P2;Temp;Humidity;BMP_temperature;BMP_pressure;BME280_temperature;BME280_humidity;BME280_pressure;Samples;Min_cycle;Max_cycle;Signal;HPM_P1;HPM_P2
2022/11/06 00:02:13;;;;;;;;;;;;;;;9.02;100.00;99984.06;4954949;28;20439;-81
2022/11/06 00:04:39;;;;;;;;;;;;;;;9.02;100.00;99981.31;4972306;28;20327;-80
2022/11/06 00:07:04;;;;;;;;;;;;;;;9.01;100.00;99973.47;4976624;28;19918;-80
2022/11/06 00:09:29;;;;;;;;;;;;;;;8.99;100.00;99987.72;4979295;28;19920;-80
2022/11/06 00:11:56;;;;;;;;;;;;;;;8.97;100.00;99981.84;4990826;28;20351;-80
2022/11/06 00:14:22;;;;;;;;;;;;;;;8.97;100.00;99981.84;4961838;28;19922;-80
2022/11/06 00:16:48;;;;;;;;;;;;;;;8.94;100.00;99985.44;4993941;28;19917;-80
2022/11/06 00:19:13;;;;;;;;;;;;;;;8.95;100.00;99992.53;4988873;28;19917;-80
2022/11/06 00:21:39;;;;;;;;;;;;;;;8.93;100.00;99983.91;4992717;28;19917;-80
2022/11/06 00:24:05;;;;;;;;;;;;;;;8.92;100.00;99989.84;4988255;28;19917;-81
2022/11/06 00:26:30;;;;;;;;;;;;;;;8.91;100.00;99989.06;4989008;28;20410;-80
2022/11/06 00:28:59;;;;;;;;;;;;;;;8.90;100.00;99998.56;4957146;28;19918;-80
2022/11/06 00:31:26;;;;;;;;;;;;;;;8.89;100.00;99995.03;4986566;28;19917;-80
2022/11/06 00:33:52;;;;;;;;;;;;;;;8.89;100.00;100002.56;4994018;28;19926;-81
2022/11/06 00:36:18;;;;;;;;;;;;;;;8.88;100.00;100003.75;4985140;28;19922;-81
2022/11/06 00:38:44;;;;;;;;;;;;;;;8.87;100.00;100007.72;4991955;28;21084;-81
2022/11/06 00:41:11;;;;;;;;;;;;;;;8.85;100.00;99994.34;4971541;28;19928;-81
2022/11/06 00:43:36;;;;;;;;;;;;;;;8.85;100.00;100005.41;4973825;28;19918;-81
2022/11/06 00:46:05;;;;;;;;;;;;;;;8.85;100.00;100007.38;4992838;28;19964;-81
2022/11/06 00:48:30;;;;;;;;;;;;;;;8.84;100.00;100008.56;4982388;28;20509;-80
2022/11/06 00:51:03;;;;;;;;;;;;;;;8.83;100.00;100007.00;4988712;28;19918;-82
2022/11/06 00:53:28;;;;;;;;;;;;;;;8.81;100.00;100017.72;4950086;28;20328;-82
2022/11/06 00:55:53;;;;;;;;;;;;;;;8.81;100.00;100009.44;4990300;28;20056;-82
2022/11/06 00:58:19;;;;;;;;;;;;;;;8.80;100.00;100005.09;4993023;28;20004;-82
2022/11/06 01:00:44;;;;;;;;;;;;;;;8.78;100.00;100004.72;4973023;28;20029;-82
2022/11/06 01:03:09;;;;;;;;;;;;;;;8.80;100.00;99999.56;4974343;28;20390;-82
2022/11/06 01:05:35;;;;;;;;;;;;;;;8.76;100.00;100007.16;4969037;28;19917;-82
2022/11/06 01:08:00;;;;;;;;;;;;;;;8.75;100.00;100002.81;4983329;28;20291;-82
2022/11/06 01:10:26;;;;;;;;;;;;;;;8.77;100.00;100008.72;4990037;28;19918;-81
2022/11/06 01:12:51;;;;;;;;;;;;;;;8.74;100.00;100006.78;4974790;28;19921;-81
2022/11/06 01:15:16;;;;;;;;;;;;;;;8.75;100.00;100008.34;4991844;28;19918;-82
2022/11/06 01:17:42;;;;;;;;;;;;;;;8.74;100.00;100009.56;4990414;28;19928;-82
2022/11/06 01:20:07;;;;;;;;;;;;;;;8.73;100.00;100019.09;4977016;28;19937;-82
2022/11/06 01:22:33;;;;;;;;;;;;;;;8.74;100.00;100015.88;4985731;28;19921;-82
2022/11/06 01:24:58;;;;;;;;;;;;;;;8.73;100.00;100008.03;4968773;28;19918;-82
2022/11/06 01:27:23;;;;;;;;;;;;;;;8.73;100.00;100008.03;4979971;28;19972;-82
2022/11/06 01:29:49;;;;;;;;;;;;;;;8.72;100.00;100017.50;4957859;28;19933;-82
2022/11/06 01:32:14;;;;;;;;;;;;;;;8.71;100.00;100015.94;4943359;28;19922;-81
2022/11/06 01:34:39;;;;;;;;;;;;;;;8.69;100.00;100018.38;4967020;28;20656;-81
2022/11/06 01:37:05;;;;;;;;;;;;;;;8.68;100.00;100014.03;4991724;28;20375;-81
2022/11/06 01:39:30;;;;;;;;;;;;;;;8.68;100.00;100019.56;4974860;28;19917;-82
2022/11/06 01:41:56;;;;;;;;;;;;;;;8.68;100.00;100019.56;4991872;28;20008;-81
2022/11/06 01:44:30;;;;;;;;;;;;;;;8.68;100.00;100022.34;4993605;28;19960;-81
2022/11/06 01:46:56;;;;;;;;;;;;;;;8.66;100.00;100021.97;4992655;28;20005;-81
2022/11/06 01:49:21;;;;;;;;;;;;;;;8.67;100.00;100020.75;4975396;28;20013;-81
2022/11/06 01:51:50;;;;;;;;;;;;;;;8.66;100.00;100022.75;4989350;28;20012;-81
2022/11/06 01:54:16;;;;;;;;;;;;;;;8.63;100.00;100031.09;4968558;28;20008;-81
2022/11/06 01:56:42;;;;;;;;;;;;;;;8.63;100.00;100023.59;4945840;28;20025;-82
2022/11/06 01:59:08;;;;;;;;;;;;;;;8.61;100.00;100019.72;4992098;28;20338;-81
2022/11/06 02:04:02;;;;;;;;;;;;;;;8.61;100.00;100016.94;5036453;23;19921;-79
2022/11/06 02:06:27;;;;;;;;;;;;;;;8.59;100.00;100022.09;5009755;28;20456;-79
2022/11/06 02:08:53;;;;;;;;;;;;;;;8.60;100.00;100027.22;5029910;28;19917;-79
2022/11/06 02:11:18;;;;;;;;;;;;;;;8.59;100.00;100030.41;5014671;28;20412;-79
2022/11/06 02:13:59;;;;;;;;;;;;;;;8.59;100.00;100031.19;5032880;28;19924;-79
2022/11/06 02:16:24;;;;;;;;;;;;;;;8.58;100.00;100024.09;5033589;28;19947;-79
2022/11/06 02:18:50;;;;;;;;;;;;;;;8.57;100.00;100033.59;5030986;28;20397;-79
2022/11/06 02:21:19;;;;;;;;;;;;;;;8.57;100.00;100041.13;5032373;28;19921;-87
2022/11/06 02:24:04;;;;;;;;;;;;;;;8.57;100.00;100030.84;5013957;28;19921;-88
2022/11/06 02:26:44;;;;;;;;;;;;;;;8.56;100.00;100042.31;4982929;28;19940;-86
2022/11/06 02:29:11;;;;;;;;;;;;;;;8.50;100.00;100039.25;5021286;28;19918;-87
2022/11/06 02:31:37;;;;;;;;;;;;;;;8.54;100.00;100039.97;5003699;28;19913;-87
2022/11/06 02:34:04;;;;;;;;;;;;;;;8.54;100.00;100047.47;5019201;28;20362;-87
2022/11/06 02:36:32;;;;;;;;;;;;;;;8.54;100.00;100044.69;5022379;28;20041;-87
2022/11/06 02:38:58;;;;;;;;;;;;;;;8.53;100.00;100055.00;5011453;28;19932;-88
2022/11/06 02:41:28;;;;;;;;;;;;;;;8.53;100.00;100056.97;5023508;28;19924;-79
2022/11/06 02:43:54;;;;;;;;;;;;;;;8.49;100.00;100051.53;5020858;28;20370;-79
2022/11/06 02:46:49;;;;;;;;;;;;;;;8.50;100.00;100057.81;5024524;28;19921;-79
2022/11/06 02:49:36;;;;;;;;;;;;;;;8.46;100.00;100068.16;5007155;28;19974;-79
2022/11/06 02:52:05;;;;;;;;;;;;;;;8.47;100.00;100078.78;4995999;28;20043;-79
2022/11/06 02:54:32;;;;;;;;;;;;;;;8.45;100.00;100077.66;5031002;28;19924;-78
2022/11/06 02:56:58;;;;;;;;;;;;;;;8.45;100.00;100074.91;5034883;28;19921;-79
2022/11/06 02:59:25;;;;;;;;;;;;;;;8.45;100.00;100077.66;5030778;28;19924;-88
2022/11/06 03:01:51;;;;;;;;;;;;;;;8.43;100.00;100083.59;5013041;28;20394;-87
2022/11/06 03:04:27;;;;;;;;;;;;;;;8.41;100.00;100078.47;5012655;28;20009;-86
2022/11/06 03:07:28;;;;;;;;;;;;;;;8.40;100.00;100079.72;4997366;28;19918;-87
2022/11/06 03:09:54;;;;;;;;;;;;;;;8.39;100.00;100071.81;4970098;28;19969;-87
2022/11/06 03:12:32;;;;;;;;;;;;;;;8.38;100.00;100090.38;5011879;28;19960;-88
2022/11/06 03:15:14;;;;;;;;;;;;;;;8.37;100.00;100086.06;5023488;28;20569;-87
2022/11/06 03:17:41;;;;;;;;;;;;;;;8.36;100.00;100081.75;5031100;28;20007;-88
2022/11/06 03:20:22;;;;;;;;;;;;;;;8.36;100.00;100079.00;5031144;28;19944;-78
2022/11/06 03:23:14;;;;;;;;;;;;;;;8.37;100.00;100085.31;5019934;28;20321;-78
2022/11/06 03:25:46;;;;;;;;;;;;;;;8.37;100.00;100088.06;5029898;28;19912;-78
2022/11/06 03:28:18;;;;;;;;;;;;;;;8.36;100.00;100090.03;5008626;28;20298;-78
2022/11/06 03:30:48;;;;;;;;;;;;;;;8.36;100.00;100089.25;5029262;28;19925;-78
2022/11/06 03:33:24;;;;;;;;;;;;;;;8.34;100.00;100081.38;5014938;28;19925;-78
2022/11/06 03:35:50;;;;;;;;;;;;;;;8.34;100.00;100092.44;5031909;28;19917;-78
2022/11/06 03:38:18;;;;;;;;;;;;;;;8.36;100.00;100100.31;5023265;28;19921;-78
2022/11/06 03:40:44;;;;;;;;;;;;;;;8.35;100.00;100104.28;5035277;28;19916;-78
2022/11/06 03:43:11;;;;;;;;;;;;;;;8.32;100.00;100111.44;5033161;28;20298;-78
2022/11/06 03:45:36;;;;;;;;;;;;;;;8.33;100.00;100112.22;5022339;28;20374;-78
2022/11/06 03:48:02;;;;;;;;;;;;;;;8.32;100.00;100108.66;5013711;28;20052;-78
2022/11/06 03:50:35;;;;;;;;;;;;;;;8.31;100.00;100104.34;5031475;28;19917;-78
2022/11/06 03:53:03;;;;;;;;;;;;;;;8.32;100.00;100105.91;5013288;28;19960;-78
2022/11/06 03:55:30;;;;;;;;;;;;;;;8.32;100.00;100113.41;5035490;28;19967;-78
2022/11/06 03:57:56;;;;;;;;;;;;;;;8.30;100.00;100105.53;5031549;28;20364;-87
2022/11/06 04:00:21;;;;;;;;;;;;;;;8.27;100.00;100106.34;5028733;28;19964;-86
2022/11/06 04:02:51;;;;;;;;;;;;;;;8.28;100.00;100105.16;5010271;28;19917;-86
2022/11/06 04:05:18;;;;;;;;;;;;;;;8.28;100.00;100110.69;5010253;28;19921;-86
2022/11/06 04:13:56;;;;;;;;;;;;;;;8.30;100.00;100111.06;5016986;28;20012;-86
2022/11/06 04:16:01;;;;;;;;;;;;;;;8.27;100.00;100108.31;5020264;28;20004;-78
2022/11/06 04:18:27;;;;;;;;;;;;;;;8.27;100.00;100124.91;5014562;28;20004;-78
2022/11/06 04:21:26;;;;;;;;;;;;;;;8.25;100.00;100119.78;5013724;28;19917;-78
2022/11/06 04:26:57;;;;;;;;;;;;;;;8.25;100.00;100114.25;5033889;28;20251;-78
2022/11/06 04:29:55;;;;;;;;;;;;;;;8.25;100.00;100108.72;5021933;28;19971;-79
2022/11/06 04:32:26;;;;;;;;;;;;;;;8.25;100.00;100110.75;4971978;28;20028;-78
2022/11/06 04:35:04;;;;;;;;;;;;;;;8.22;100.00;100106.81;5029946;28;20298;-89
2022/11/06 04:37:40;;;;;;;;;;;;;;;8.24;100.00;100115.47;5030421;28;19917;-87
2022/11/06 04:40:10;;;;;;;;;;;;;;;8.25;100.00;100108.72;5012834;28;19916;-86
2022/11/06 04:42:36;;;;;;;;;;;;;;;8.25;100.00;100119.78;5030064;28;19913;-86
2022/11/06 04:45:02;;;;;;;;;;;;;;;8.22;100.00;100106.81;5031071;28;19921;-87
2022/11/06 04:47:28;;;;;;;;;;;;;;;8.22;100.00;100112.34;5012989;28;19921;-86
2022/11/06 04:49:55;;;;;;;;;;;;;;;8.23;100.00;100115.88;5030629;28;19925;-86
2022/11/06 04:52:22;;;;;;;;;;;;;;;8.21;100.00;100116.28;5022640;28;19921;-85
2022/11/06 04:54:47;;;;;;;;;;;;;;;8.20;100.00;100117.53;5013568;28;19917;-79
2022/11/06 04:57:12;;;;;;;;;;;;;;;8.22;100.00;100111.56;5025455;28;19924;-78
2022/11/06 04:59:38;;;;;;;;;;;;;;;8.22;100.00;100108.78;5034558;28;19917;-79
2022/11/06 05:02:03;;;;;;;;;;;;;;;8.22;100.00;100101.28;5027079;28;19931;-78
2022/11/06 05:04:29;;;;;;;;;;;;;;;8.23;100.00;100108.38;5033591;28;19917;-78
2022/11/06 05:06:54;;;;;;;;;;;;;;;8.22;100.00;100122.59;5035751;28;19917;-78
2022/11/06 05:09:19;;;;;;;;;;;;;;;8.21;100.00;100115.53;5038310;28;19959;-78
2022/11/06 05:11:45;;;;;;;;;;;;;;;8.22;100.00;100120.63;5015524;28;20290;-79
2022/11/06 05:14:10;;;;;;;;;;;;;;;8.21;100.00;100116.28;5033990;28;19963;-87
2022/11/06 05:16:36;;;;;;;;;;;;;;;8.20;100.00;100120.28;5034320;28;19917;-86
2022/11/06 05:19:01;;;;;;;;;;;;;;;8.21;100.00;100124.59;5014918;28;20363;-86
2022/11/06 05:24:10;;;;;;;;;;;;;;;8.20;100.00;100109.22;5033109;28;19917;-87
2022/11/06 05:26:36;;;;;;;;;;;;;;;8.20;100.00;100125.81;5034105;28;19987;-87
2022/11/06 05:29:01;;;;;;;;;;;;;;;8.21;100.00;100129.34;5033571;28;20354;-87
2022/11/06 05:31:27;;;;;;;;;;;;;;;8.20;100.00;100136.88;5033818;28;20442;-79
2022/11/06 05:33:52;;;;;;;;;;;;;;;8.20;100.00;100128.56;5029441;28;19971;-79
2022/11/06 05:36:18;;;;;;;;;;;;;;;8.21;100.00;100140.41;5039594;28;19921;-79
2022/11/06 05:38:43;;;;;;;;;;;;;;;8.20;100.00;100138.84;5033488;28;19915;-79
2022/11/06 05:41:08;;;;;;;;;;;;;;;8.21;100.00;100141.16;5032466;28;19921;-79
2022/11/06 05:43:34;;;;;;;;;;;;;;;8.21;100.00;100143.19;5032861;28;19923;-79
2022/11/06 05:45:59;;;;;;;;;;;;;;;8.22;100.00;100150.25;5009720;28;20301;-80
2022/11/06 05:48:25;;;;;;;;;;;;;;;8.20;100.00;100158.97;5032823;28;19970;-80
2022/11/06 05:50:50;;;;;;;;;;;;;;;8.21;100.00;100157.00;5015558;28;20008;-87
2022/11/06 05:53:16;;;;;;;;;;;;;;;8.21;100.00;100149.47;5032086;28;19924;-88
2022/11/06 05:55:41;;;;;;;;;;;;;;;8.23;100.00;100152.59;5010078;28;19917;-87
2022/11/06 05:58:06;;;;;;;;;;;;;;;8.21;100.00;100154.22;5029063;28;20172;-88
2022/11/06 06:00:32;;;;;;;;;;;;;;;8.22;100.00;100169.59;5033775;28;20320;-86
2022/11/06 06:02:57;;;;;;;;;;;;;;;8.21;100.00;100160.50;5034476;28;19927;-86
2022/11/06 06:05:22;;;;;;;;;;;;;;;8.21;100.00;100171.56;5031449;28;19971;-86
2022/11/06 06:07:47;;;;;;;;;;;;;;;8.20;100.00;100158.97;5014891;28;19917;-87
2022/11/06 06:10:13;;;;;;;;;;;;;;;8.22;100.00;100178.66;5032720;28;19921;-78
2022/11/06 06:12:38;;;;;;;;;;;;;;;8.21;100.00;100177.09;5014270;28;20290;-78
2022/11/06 06:15:04;;;;;;;;;;;;;;;8.18;100.00;100182.66;5030219;28;19943;-78
2022/11/06 06:17:30;;;;;;;;;;;;;;;8.19;100.00;100196.09;5028174;28;20297;-78
2022/11/06 06:19:55;;;;;;;;;;;;;;;8.17;100.00;100197.72;5032478;28;20004;-79
2022/11/06 06:22:21;;;;;;;;;;;;;;;8.18;100.00;100210.31;5031684;28;19956;-79
2022/11/06 06:24:46;;;;;;;;;;;;;;;8.16;100.00;100205.22;5031129;28;20370;-79
2022/11/06 06:27:11;;;;;;;;;;;;;;;8.16;100.00;100207.97;5031018;28;19917;-79
2022/11/06 06:29:37;;;;;;;;;;;;;;;8.15;100.00;100206.41;5031174;28;19925;-88
2022/11/06 06:32:03;;;;;;;;;;;;;;;8.16;100.00;100210.75;5029494;28;19940;-87
2022/11/06 06:34:28;;;;;;;;;;;;;;;8.16;100.00;100213.50;5036653;28;19964;-88
2022/11/06 06:36:53;;;;;;;;;;;;;;;8.17;100.00;100201.22;5036077;28;19921;-87
2022/11/06 06:39:19;;;;;;;;;;;;;;;8.12;100.00;100212.78;5032232;28;19917;-87
2022/11/06 06:41:44;;;;;;;;;;;;;;;8.18;100.00;100219.38;5027949;28;19917;-87
2022/11/06 06:44:10;;;;;;;;;;;;;;;8.17;100.00;100217.06;5023897;28;20286;-87
2022/11/06 06:46:35;;;;;;;;;;;;;;;8.15;100.00;100228.50;5015127;28;19940;-88
2022/11/06 06:49:00;;;;;;;;;;;;;;;8.15;100.00;100234.03;5028798;28;20432;-87
2022/11/06 06:51:26;;;;;;;;;;;;;;;8.15;100.00;100239.56;5013652;28;20354;-87
2022/11/06 06:53:51;;;;;;;;;;;;;;;8.16;100.00;100238.38;5013301;28;19960;-88
2022/11/06 06:56:17;;;;;;;;;;;;;;;8.16;100.00;100245.88;5033798;28;19925;-87
2022/11/06 06:58:43;;;;;;;;;;;;;;;8.16;100.00;100246.66;5032218;28;19917;-87
2022/11/06 07:01:09;;;;;;;;;;;;;;;8.16;100.00;100249.41;5015196;28;19927;-87
2022/11/06 07:03:38;;;;;;;;;;;;;;;8.16;100.00;100243.91;5008999;28;19956;-87
2022/11/06 07:06:03;;;;;;;;;;;;;;;8.21;100.00;100260.00;5032113;28;19928;-79
2022/11/06 07:08:29;;;;;;;;;;;;;;;8.22;100.00;100255.25;5029038;28;19925;-87
2022/11/06 07:11:12;;;;;;;;;;;;;;;8.24;100.00;100252.88;5037480;28;19917;-88
2022/11/06 07:13:37;;;;;;;;;;;;;;;8.25;100.00;100251.69;5012455;28;20425;-86
2022/11/06 07:16:03;;;;;;;;;;;;;;;8.24;100.00;100252.88;5026691;28;19928;-87
2022/11/06 07:18:29;;;;;;;;;;;;;;;8.24;100.00;100248.13;5038047;28;19987;-88
2022/11/06 07:20:54;;;;;;;;;;;;;;;8.25;100.00;100249.66;5037705;28;20004;-88
2022/11/06 07:23:19;;;;;;;;;;;;;;;8.29;100.00;100255.97;5031363;28;19924;-87
2022/11/06 07:25:50;;;;;;;;;;;;;;;8.31;100.00;100256.34;5029534;28;20397;-87
2022/11/06 07:28:18;;;;;;;;;;;;;;;8.34;100.00;100257.47;5027062;28;19986;-79
2022/11/06 07:30:44;;;;;;;;;;;;;;;8.36;100.00;100247.59;5027639;28;19971;-78
2022/11/06 07:33:09;;;;;;;;;;;;;;;8.40;100.00;100261.34;5028853;28;19917;-79
2022/11/06 07:35:35;;;;;;;;;;;;;;;8.39;100.00;100251.50;5028935;28;20363;-79
2022/11/06 07:38:04;;;;;;;;;;;;;;;8.41;100.00;100244.34;5026646;28;19916;-79
2022/11/06 07:40:30;;;;;;;;;;;;;;;8.46;100.00;100251.38;5029294;28;20311;-79
2022/11/06 07:42:55;;;;;;;;;;;;;;;8.47;100.00;100244.66;5027275;28;19987;-78
2022/11/06 07:45:20;;;;;;;;;;;;;;;8.52;100.00;100252.50;5012028;28;20241;-88
2022/11/06 07:47:46;;;;;;;;;;;;;;;8.54;100.00;100243.75;5031804;28;19913;-89
2022/11/06 07:50:11;;;;;;;;;;;;;;;8.59;100.00;100232.25;5030749;28;19917;-88
2022/11/06 07:52:36;;;;;;;;;;;;;;;8.60;100.00;100253.16;5033869;28;19917;-88
2022/11/06 07:55:02;;;;;;;;;;;;;;;8.63;100.00;100252.31;5023306;28;19932;-88
2022/11/06 07:57:27;;;;;;;;;;;;;;;8.67;100.00;100253.84;5029520;28;19916;-87
2022/11/06 07:59:53;;;;;;;;;;;;;;;8.71;100.00;100248.25;5029386;28;19917;-89
2022/11/06 08:02:18;;;;;;;;;;;;;;;8.75;100.00;100243.44;5024349;28;19928;-78
2022/11/06 08:04:43;;;;;;;;;;;;;;;8.79;100.00;100244.94;5026680;28;19925;-87
2022/11/06 08:07:09;;;;;;;;;;;;;;;8.77;100.00;100241.06;5024736;28;19967;-86
2022/11/06 08:09:34;;;;;;;;;;;;;;;8.80;100.00;100241.00;5013472;28;19971;-87
2022/11/06 08:11:59;;;;;;;;;;;;;;;8.87;100.00;100245.59;5031921;28;19923;-88
2022/11/06 08:14:25;;;;;;;;;;;;;;;8.89;100.00;100246.00;5030157;28;20282;-87
2022/11/06 08:16:50;;;;;;;;;;;;;;;8.86;100.00;100238.50;5030034;28;20004;-88
2022/11/06 08:19:15;;;;;;;;;;;;;;;8.85;100.00;100237.75;5033895;28;19963;-87
2022/11/06 08:21:41;;;;;;;;;;;;;;;8.88;100.00;100241.66;5029781;28;19941;-88
2022/11/06 08:24:06;;;;;;;;;;;;;;;8.86;100.00;100233.75;5029763;28;19921;-79
2022/11/06 08:26:32;;;;;;;;;;;;;;;8.94;100.00;100233.66;5029439;28;19921;-79
2022/11/06 08:28:57;;;;;;;;;;;;;;;8.92;100.00;100236.84;5033424;28;20455;-80
2022/11/06 08:31:23;;;;;;;;;;;;;;;8.96;100.00;100236.78;5033219;28;19920;-79
2022/11/06 08:33:48;;;;;;;;;;;;;;;8.98;100.00;100240.69;5033689;28;20466;-79
2022/11/06 08:36:13;;;;;;;;;;;;;;;8.98;100.00;100239.91;5016009;28;20263;-79
2022/11/06 08:38:39;;;;;;;;;;;;;;;8.96;100.00;100242.31;5033681;28;20286;-79
2022/11/06 08:41:05;;;;;;;;;;;;;;;8.98;100.00;100243.44;5033811;28;19944;-78
2022/11/06 08:43:30;;;;;;;;;;;;;;;8.98;100.00;100246.22;5037112;28;19921;-87
2022/11/06 08:45:55;;;;;;;;;;;;;;;8.96;100.00;100245.06;5036259;28;19967;-88
2022/11/06 08:48:21;;;;;;;;;;;;;;;8.97;100.00;100241.13;5034141;28;19917;-88
2022/11/06 08:50:47;;;;;;;;;;;;;;;8.97;100.00;100244.66;5034191;28;19920;-88
2022/11/06 08:53:12;;;;;;;;;;;;;;;8.98;100.00;100243.44;5015677;28;19917;-87
2022/11/06 08:55:38;;;;;;;;;;;;;;;9.02;100.00;100235.09;5033432;28;19925;-89
2022/11/06 08:58:03;;;;;;;;;;;;;;;9.06;100.00;100235.81;5033837;28;19943;-88
2022/11/06 09:00:29;;;;;;;;;;;;;;;9.11;100.00;100236.09;5033799;28;20337;-89
2022/11/06 09:03:01;;;;;;;;;;;;;;;9.08;100.00;100236.16;5035122;28;19921;-79
2022/11/06 09:05:27;;;;;;;;;;;;;;;9.04;100.00;100247.31;5014858;28;19917;-79
2022/11/06 09:07:52;;;;;;;;;;;;;;;9.02;100.00;100246.94;5033031;28;19932;-79
2022/11/06 09:10:17;;;;;;;;;;;;;;;8.99;100.00;100245.00;4999549;28;19972;-79
2022/11/06 09:12:43;;;;;;;;;;;;;;;8.99;100.00;100242.25;5032736;28;20392;-78
2022/11/06 09:15:08;;;;;;;;;;;;;;;9.00;100.00;100243.03;5014679;28;19917;-78
2022/11/06 09:17:34;;;;;;;;;;;;;;;9.01;100.00;100237.09;5028671;28;19917;-78
2022/11/06 09:19:59;;;;;;;;;;;;;;;9.04;100.00;100254.81;5033616;28;20404;-78
2022/11/06 09:22:24;;;;;;;;;;;;;;;8.95;100.00;100247.06;5035915;28;19928;-86
2022/11/06 09:24:50;;;;;;;;;;;;;;;8.92;100.00;100241.59;5034700;28;20039;-87
2022/11/06 09:27:15;;;;;;;;;;;;;;;8.86;100.00;100244.03;5017401;28;19917;-88
2022/11/06 09:29:43;;;;;;;;;;;;;;;8.91;100.00;100246.34;5035607;28;20297;-87
2022/11/06 09:32:08;;;;;;;;;;;;;;;8.96;100.00;100243.09;5019147;28;20275;-86
2022/11/06 09:34:34;;;;;;;;;;;;;;;9.02;100.00;100241.41;5026379;28;19917;-87
2022/11/06 09:37:00;;;;;;;;;;;;;;;9.00;100.00;100235.50;5033843;28;20501;-88
2022/11/06 09:39:26;;;;;;;;;;;;;;;9.03;100.00;100237.44;5024943;28;20272;-81
2022/11/06 09:42:01;;;;;;;;;;;;;;;9.06;100.00;100241.34;5029754;28;20283;-78
2022/11/06 09:44:29;;;;;;;;;;;;;;;9.06;100.00;100238.59;5011567;28;19917;-78
2022/11/06 09:46:54;;;;;;;;;;;;;;;9.07;100.00;100249.22;5030927;28;20429;-78
2022/11/06 09:49:40;;;;;;;;;;;;;;;9.11;100.00;100249.16;5018485;28;20003;-78
2022/11/06 09:52:13;;;;;;;;;;;;;;;9.10;100.00;100242.09;5011170;28;20389;-79
2022/11/06 09:54:49;;;;;;;;;;;;;;;9.12;100.00;100247.97;5028781;28;20003;-79
2022/11/06 09:57:17;;;;;;;;;;;;;;;9.13;100.00;100247.53;5028828;28;20417;-79
2022/11/06 09:59:42;;;;;;;;;;;;;;;9.15;100.00;100250.66;5012626;28;19913;-89
2022/11/06 10:02:24;;;;;;;;;;;;;;;9.14;100.00;100251.84;5016201;28;19924;-89
2022/11/06 10:04:50;;;;;;;;;;;;;;;9.11;100.00;100244.41;5034209;28;19924;-88
2022/11/06 10:07:28;;;;;;;;;;;;;;;9.13;100.00;100242.00;5031076;28;19917;-88
2022/11/06 10:09:53;;;;;;;;;;;;;;;9.17;100.00;100248.28;5014443;28;19917;-87
2022/11/06 10:12:28;;;;;;;;;;;;;;;9.18;100.00;100247.03;5012671;28;19936;-86
2022/11/06 10:15:03;;;;;;;;;;;;;;;9.22;100.00;100250.53;5028061;28;19917;-87
2022/11/06 10:17:44;;;;;;;;;;;;;;;9.22;100.00;100242.22;5030021;28;19917;-87
2022/11/06 10:20:12;;;;;;;;;;;;;;;9.11;100.00;100249.94;5012233;28;19921;-78
2022/11/06 10:22:37;;;;;;;;;;;;;;;9.09;100.00;100249.59;5012169;28;19921;-79
2022/11/06 10:25:16;;;;;;;;;;;;;;;9.16;100.00;100240.38;5029864;28;20301;-77
2022/11/06 10:27:46;;;;;;;;;;;;;;;9.22;100.00;100250.53;5011086;28;19924;-78
2022/11/06 10:30:12;;;;;;;;;;;;;;;9.21;100.00;100245.44;5011681;28;20384;-79
2022/11/06 10:32:49;;;;;;;;;;;;;;;9.20;100.00;100247.41;5013800;28;20016;-79
2022/11/06 10:35:36;;;;;;;;;;;;;;;9.20;100.00;100246.63;5030469;28;20001;-79
2022/11/06 10:38:04;;;;;;;;;;;;;;;9.16;100.00;100245.91;5018031;28;19971;-88
2022/11/06 10:40:30;;;;;;;;;;;;;;;9.20;100.00;100252.94;5034838;28;19921;-87
2022/11/06 10:42:58;;;;;;;;;;;;;;;9.25;100.00;100244.16;5031684;28;19920;-88
2022/11/06 10:45:23;;;;;;;;;;;;;;;9.26;100.00;100242.94;5010311;28;19917;-88
2022/11/06 10:47:59;;;;;;;;;;;;;;;9.29;100.00;100244.88;4994463;28;19917;-88
2022/11/06 10:50:25;;;;;;;;;;;;;;;9.32;100.00;100244.03;5029779;28;19921;-88
2022/11/06 10:52:50;;;;;;;;;;;;;;;9.31;100.00;100239.69;5013330;28;20337;-88
2022/11/06 10:55:34;;;;;;;;;;;;;;;9.34;100.00;100241.59;5029613;28;19921;-88
2022/11/06 10:58:25;;;;;;;;;;;;;;;9.36;100.00;100233.69;5036169;28;20466;-78
2022/11/06 11:00:51;;;;;;;;;;;;;;;9.38;100.00;100238.00;5026225;28;20294;-78
2022/11/06 11:03:27;;;;;;;;;;;;;;;9.36;100.00;100227.34;5012100;28;19924;-79
2022/11/06 11:05:54;;;;;;;;;;;;;;;9.38;100.00;100218.63;5012527;28;19932;-78
2022/11/06 11:08:45;;;;;;;;;;;;;;;9.35;100.00;100221.03;5030290;28;20350;-78
2022/11/06 11:11:14;;;;;;;;;;;;;;;9.35;100.00;100203.63;5025919;28;20306;-79
2022/11/06 11:13:42;;;;;;;;;;;;;;;9.33;100.00;100201.31;5027407;28;19927;-79
2022/11/06 11:16:21;;;;;;;;;;;;;;;9.31;100.00;100203.72;5030336;28;19917;-88
2022/11/06 11:18:47;;;;;;;;;;;;;;;9.28;100.00;100198.25;5014170;28;19940;-85
2022/11/06 11:21:13;;;;;;;;;;;;;;;9.33;100.00;100200.53;5021647;28;20366;-88
2022/11/06 11:23:39;;;;;;;;;;;;;;;9.34;100.00;100197.31;5028738;28;19925;-87
2022/11/06 11:26:17;;;;;;;;;;;;;;;9.39;100.00;100201.59;5027962;28;20052;-87
2022/11/06 11:28:43;;;;;;;;;;;;;;;9.41;100.00;100181.78;5008572;28;20333;-88
2022/11/06 11:31:10;;;;;;;;;;;;;;;9.43;100.00;100198.75;5014491;28;19932;-79
2022/11/06 11:33:35;;;;;;;;;;;;;;;9.48;100.00;100196.28;5012274;28;19964;-79
2022/11/06 11:36:02;;;;;;;;;;;;;;;9.54;100.00;100191.03;5029636;28;19948;-87
2022/11/06 11:38:27;;;;;;;;;;;;;;;9.54;100.00;100196.56;5029470;28;19924;-88
2022/11/06 11:40:54;;;;;;;;;;;;;;;9.51;100.00;100191.84;4995824;28;19914;-89
2022/11/06 11:43:26;;;;;;;;;;;;;;;9.54;100.00;100199.34;5009802;28;20134;-87
2022/11/06 11:46:07;;;;;;;;;;;;;;;9.56;100.00;100196.91;5023309;28;19959;-87
2022/11/06 11:48:44;;;;;;;;;;;;;;;9.57;100.00;100196.50;5029273;28;19924;-87
2022/11/06 11:51:33;;;;;;;;;;;;;;;9.65;100.00;100192.38;5030356;28;21198;-88
2022/11/06 11:54:02;;;;;;;;;;;;;;;9.69;100.00;100189.53;5020027;28;19929;-79
2022/11/06 11:56:28;;;;;;;;;;;;;;;9.71;100.00;100176.00;5005874;28;19917;-79
2022/11/06 11:58:57;;;;;;;;;;;;;;;9.75;100.00;100187.81;5029123;28;19996;-79
2022/11/06 12:01:30;;;;;;;;;;;;;;;9.75;100.00;100182.25;5005122;28;19921;-79
2022/11/06 12:03:56;;;;;;;;;;;;;;;9.80;100.00;100179.00;5011419;28;19924;-79
2022/11/06 12:06:21;;;;;;;;;;;;;;;9.83;100.00;100181.69;5008111;28;19917;-79
2022/11/06 12:08:47;;;;;;;;;;;;;;;9.88;100.00;100166.56;5009404;28;19911;-79
2022/11/06 12:11:14;;;;;;;;;;;;;;;9.95;100.00;100171.19;5011233;28;20003;-79
2022/11/06 12:13:40;;;;;;;;;;;;;;;10.00;100.00;100167.88;5024576;28;19928;-86
2022/11/06 12:16:09;;;;;;;;;;;;;;;10.00;100.00;100176.97;5023755;28;20337;-88
2022/11/06 12:18:45;;;;;;;;;;;;;;;9.98;100.00;100171.09;4990277;28;20016;-86
2022/11/06 12:21:14;;;;;;;;;;;;;;;9.93;100.00;100163.28;5026316;28;19917;-86
2022/11/06 12:23:56;;;;;;;;;;;;;;;9.93;100.00;100149.44;5024730;28;19975;-87
2022/11/06 12:26:36;;;;;;;;;;;;;;;9.95;100.00;100162.88;5017897;28;19963;-88
2022/11/06 12:29:06;;;;;;;;;;;;;;;9.97;100.00;100172.28;5006946;28;19925;-87
2022/11/06 12:31:43;;;;;;;;;;;;;;;9.98;100.00;100165.56;5010282;28;19931;-78
2022/11/06 12:34:13;;;;;;;;;;;;;;;10.01;100.00;100167.44;5008331;28;19957;-79
2022/11/06 12:36:40;;;;;;;;;;;;;;;10.02;100.00;100171.78;5008528;28;19917;-79
2022/11/06 12:39:10;;;;;;;;;;;;;;;10.04;100.00;100166.59;5026156;28;19917;-79
2022/11/06 12:41:40;;;;;;;;;;;;;;;10.03;100.00;100170.56;5009687;28;19921;-79
2022/11/06 12:44:08;;;;;;;;;;;;;;;10.05;100.00;100176.47;5021883;28;19925;-78
2022/11/06 12:46:43;;;;;;;;;;;;;;;10.04;100.00;100174.91;5009032;28;19917;-78
2022/11/06 12:49:27;;;;;;;;;;;;;;;10.05;100.00;100172.91;4996963;28;19925;-78
2022/11/06 12:51:53;;;;;;;;;;;;;;;10.02;100.00;100177.34;5026160;28;19917;-87
2022/11/06 12:54:18;;;;;;;;;;;;;;;10.01;100.00;100184.09;5025270;28;19929;-88
2022/11/06 12:56:52;;;;;;;;;;;;;;;9.98;100.00;100173.88;5027781;28;19917;-87
2022/11/06 12:59:20;;;;;;;;;;;;;;;10.06;100.00;100180.03;5026172;28;19925;-87